createdAt,value
2019-03-12T00:02:23.838Z,7.30
2019-03-12T00:04:57.248Z,7.03
2019-03-12T00:07:30.546Z,7.97
2019-03-12T00:10:03.860Z,7.57
2019-03-12T00:12:37.187Z,7.13
2019-03-12T00:15:10.660Z,6.40
2019-03-12T00:17:44.512Z,7.28
2019-03-12T00:20:17.671Z,6.90
2019-03-12T00:22:50.912Z,6.03
2019-03-12T00:25:24.340Z,6.33
2019-03-12T00:27:57.591Z,5.57
2019-03-12T00:30:31.028Z,7.03
2019-03-12T00:33:04.260Z,6.75
2019-03-12T00:35:37.582Z,5.83
2019-03-12T00:38:11.510Z,6.23
2019-03-12T00:40:45.736Z,5.62
2019-03-12T00:43:20.383Z,5.30
2019-03-12T00:45:53.686Z,5.80
2019-03-12T00:48:28.351Z,5.53
2019-03-12T00:51:01.666Z,6.40
2019-03-12T00:53:35.042Z,5.73
2019-03-12T00:56:08.257Z,5.50
2019-03-12T00:58:41.622Z,6.20
2019-03-12T01:01:16.182Z,6.20
2019-03-12T01:03:50.799Z,5.93
2019-03-12T01:06:24.447Z,6.03
2019-03-12T01:08:57.735Z,6.63
2019-03-12T01:11:30.997Z,6.58
2019-03-12T01:14:04.239Z,5.95
2019-03-12T01:16:37.874Z,7.07
2019-03-12T01:19:11.410Z,6.57
2019-03-12T01:21:44.812Z,5.80
2019-03-12T01:24:18.071Z,5.57
2019-03-12T01:26:51.341Z,5.03
2019-03-12T01:29:24.581Z,4.50
2019-03-12T01:31:57.815Z,4.10
2019-03-12T01:34:31.141Z,4.62
2019-03-12T01:37:04.465Z,4.17
2019-03-12T01:39:37.832Z,3.93
2019-03-12T01:42:11.191Z,3.92
2019-03-12T01:44:44.339Z,5.50
2019-03-12T01:47:17.579Z,4.90
2019-03-12T01:49:50.854Z,4.33
2019-03-12T01:52:24.250Z,4.50
2019-03-12T01:54:57.846Z,4.33
2019-03-12T01:57:31.125Z,4.27
2019-03-12T02:00:04.664Z,4.28
2019-03-12T02:02:40.672Z,4.23
2019-03-12T02:05:14.161Z,4.53
2019-03-12T02:07:48.014Z,5.95
2019-03-12T02:10:24.521Z,6.03
2019-03-12T02:12:57.896Z,3.63
2019-03-12T02:15:31.268Z,4.00
2019-03-12T02:18:04.859Z,3.30
2019-03-12T02:20:38.116Z,4.00
2019-03-12T02:23:12.653Z,3.60
2019-03-12T02:25:46.021Z,3.47
2019-03-12T02:28:19.233Z,3.70
2019-03-12T02:30:52.554Z,3.50
2019-03-12T02:33:25.942Z,3.47
2019-03-12T02:35:59.406Z,3.50
2019-03-12T02:38:32.691Z,3.43
2019-03-12T02:41:06.032Z,3.50
2019-03-12T02:43:39.431Z,3.63
2019-03-12T02:46:12.783Z,3.93
2019-03-12T02:48:46.056Z,3.83
2019-03-12T02:51:19.505Z,3.70
2019-03-12T02:53:52.783Z,3.77
2019-03-12T02:56:27.041Z,3.47
2019-03-12T02:59:00.269Z,3.05
2019-03-12T03:01:35.407Z,3.07
2019-03-12T03:04:08.801Z,5.90
2019-03-12T03:06:43.056Z,7.37
2019-03-12T03:09:16.568Z,3.30
2019-03-12T03:11:51.015Z,3.40
2019-03-12T03:14:38.230Z,3.57
2019-03-12T03:17:11.674Z,3.40
2019-03-12T03:19:45.010Z,3.10
2019-03-12T03:22:18.534Z,3.00
2019-03-12T03:24:51.961Z,4.00
2019-03-12T03:27:29.095Z,3.17
2019-03-12T03:30:16.995Z,3.90
2019-03-12T03:32:50.778Z,4.62
2019-03-12T03:35:24.247Z,4.97
2019-03-12T03:37:57.565Z,3.70
2019-03-12T03:40:30.819Z,3.92
2019-03-12T03:43:04.144Z,3.50
2019-03-12T03:45:52.901Z,3.37
2019-03-12T03:49:17.799Z,4.57
2019-03-12T03:52:34.753Z,2.90
2019-03-12T03:59:32.376Z,2.60
2019-03-12T04:02:04.207Z,2.57
2019-03-12T04:04:37.557Z,2.30
2019-03-12T04:07:12.531Z,3.33
2019-03-12T04:09:46.447Z,2.30
2019-03-12T04:12:30.191Z,2.97
2019-03-12T04:15:03.696Z,2.80
2019-03-12T04:18:23.750Z,3.60
2019-03-12T04:20:41.694Z,4.60
2019-03-12T04:23:16.256Z,4.97
2019-03-12T04:25:52.002Z,3.30
2019-03-12T04:28:25.355Z,5.70
2019-03-12T04:30:58.858Z,4.57
2019-03-12T04:34:00.219Z,5.53
2019-03-12T04:36:34.936Z,2.90
2019-03-12T04:39:09.472Z,2.73
2019-03-12T04:41:42.853Z,2.70
2019-03-12T04:44:17.947Z,2.60
2019-03-12T04:46:51.303Z,4.17
2019-03-12T04:49:26.292Z,3.80
2019-03-12T04:51:59.610Z,2.80
2019-03-12T04:54:32.848Z,2.80
2019-03-12T04:57:07.856Z,3.17
2019-03-12T04:59:42.862Z,4.00
2019-03-12T05:02:16.231Z,6.80
2019-03-12T05:04:49.479Z,4.63
2019-03-12T05:07:22.821Z,3.87
2019-03-12T05:09:57.838Z,3.50
2019-03-12T05:12:31.263Z,5.43
2019-03-12T05:15:05.035Z,5.27
2019-03-12T05:17:38.257Z,2.50
2019-03-12T05:20:14.065Z,2.47
2019-03-12T05:22:51.471Z,3.53
2019-03-12T05:25:24.716Z,2.20
2019-03-12T05:27:58.067Z,2.90
2019-03-12T05:30:31.366Z,3.70
2019-03-12T05:33:04.883Z,3.00
2019-03-12T05:35:38.284Z,5.03
2019-03-12T05:38:11.667Z,4.30
2019-03-12T05:40:45.179Z,2.80
2019-03-12T05:43:19.201Z,5.35
2019-03-12T05:45:52.522Z,2.83
2019-03-12T05:48:25.849Z,5.13
2019-03-12T05:50:59.901Z,2.77
2019-03-12T05:53:50.708Z,2.33
2019-03-12T05:56:24.274Z,2.95
2019-03-12T05:58:57.507Z,3.03
2019-03-12T06:01:30.944Z,2.35
2019-03-12T06:04:04.285Z,3.00
2019-03-12T06:06:38.932Z,2.70
2019-03-12T06:09:12.399Z,3.37
2019-03-12T06:11:45.682Z,2.63
2019-03-12T06:14:19.721Z,2.75
2019-03-12T06:16:54.432Z,3.83
2019-03-12T06:19:27.815Z,3.77
2019-03-12T06:22:01.090Z,3.07
2019-03-12T06:24:34.399Z,3.13
2019-03-12T06:27:08.197Z,3.00
2019-03-12T06:29:41.424Z,2.77
2019-03-12T06:32:14.713Z,6.03
2019-03-12T06:34:48.055Z,3.37
2019-03-12T06:37:23.349Z,3.17
2019-03-12T06:39:57.108Z,3.10
2019-03-12T06:42:31.821Z,6.10
2019-03-12T06:45:07.903Z,6.03
2019-03-12T06:47:42.295Z,3.10
2019-03-12T06:50:15.791Z,3.00
2019-03-12T06:52:50.116Z,4.80
2019-03-12T06:55:23.570Z,4.27
2019-03-12T06:58:08.325Z,3.83
2019-03-12T07:00:43.161Z,3.70
2019-03-12T07:03:16.686Z,2.87
2019-03-12T07:05:50.232Z,2.67
2019-03-12T07:08:25.027Z,3.93
2019-03-12T07:10:58.465Z,3.13
2019-03-12T07:13:31.997Z,2.30
2019-03-12T07:16:05.326Z,2.63
2019-03-12T07:18:38.973Z,2.50
2019-03-12T07:21:12.680Z,2.13
2019-03-12T07:23:46.073Z,2.65
2019-03-12T07:26:20.390Z,2.60
2019-03-12T07:28:53.926Z,2.60
2019-03-12T07:31:27.866Z,3.60
2019-03-12T07:34:03.085Z,2.67
2019-03-12T07:36:36.748Z,3.12
2019-03-12T07:39:14.490Z,2.97
2019-03-12T07:41:47.858Z,2.80
2019-03-12T07:44:21.451Z,3.10
2019-03-12T07:46:54.664Z,2.50
2019-03-12T07:49:28.155Z,2.60
2019-03-12T07:52:01.659Z,2.67
2019-03-12T07:54:35.450Z,3.50
2019-03-12T07:57:09.025Z,3.47
2019-03-12T07:59:42.436Z,2.43
2019-03-12T08:02:17.356Z,2.60
2019-03-12T08:04:50.689Z,3.73
2019-03-12T08:07:24.152Z,3.80
2019-03-12T08:10:00.998Z,3.45
2019-03-12T08:12:34.335Z,2.80
2019-03-12T08:15:22.041Z,2.70
2019-03-12T08:17:44.967Z,2.60
2019-03-12T08:20:19.105Z,3.03
2019-03-12T08:22:53.879Z,2.67
2019-03-12T08:25:28.523Z,2.97
2019-03-12T08:28:04.633Z,3.87
2019-03-12T08:30:38.949Z,2.50
2019-03-12T08:33:13.707Z,3.03
2019-03-12T08:35:49.283Z,3.40
2019-03-12T08:38:22.874Z,4.83
2019-03-12T08:40:56.340Z,3.10
2019-03-12T08:43:29.747Z,3.17
2019-03-12T08:46:03.099Z,2.50
2019-03-12T08:48:36.440Z,2.90
2019-03-12T08:51:11.529Z,2.77
2019-03-12T08:53:44.982Z,3.53
2019-03-12T08:56:21.242Z,3.33
2019-03-12T08:58:54.654Z,3.20
2019-03-12T09:01:28.142Z,3.20
2019-03-12T09:04:01.860Z,3.60
2019-03-12T09:06:39.833Z,3.60
2019-03-12T09:09:13.852Z,3.93
2019-03-12T09:11:47.488Z,5.37
2019-03-12T09:14:21.525Z,4.35
2019-03-12T09:16:57.913Z,4.03
2019-03-12T09:19:31.565Z,3.13
2019-03-12T09:22:05.654Z,3.23
2019-03-12T09:24:41.672Z,3.00
2019-03-12T09:27:18.480Z,2.90
2019-03-12T09:29:52.154Z,2.57
2019-03-12T09:32:25.671Z,2.30
2019-03-12T09:34:59.851Z,3.10
2019-03-12T09:37:33.777Z,3.60
2019-03-12T09:40:11.123Z,3.57
2019-03-12T09:42:44.455Z,3.72
2019-03-12T09:45:17.993Z,3.70
2019-03-12T09:47:52.382Z,4.22
2019-03-12T09:50:28.652Z,4.17
2019-03-12T09:53:03.839Z,3.60
2019-03-12T09:55:38.118Z,3.47
2019-03-12T09:58:12.297Z,3.10
2019-03-12T10:00:46.968Z,2.67
2019-03-12T10:03:20.670Z,3.10
2019-03-12T10:05:56.210Z,2.90
2019-03-12T10:08:34.211Z,3.03
2019-03-12T10:11:12.668Z,3.60
2019-03-12T10:13:49.436Z,3.53
2019-03-12T10:16:24.551Z,4.12
2019-03-12T10:18:58.743Z,4.03
2019-03-12T10:21:34.822Z,4.27
2019-03-12T10:24:09.214Z,3.43
2019-03-12T10:26:43.183Z,3.77
2019-03-12T10:29:18.386Z,4.20
2019-03-12T10:31:57.597Z,4.92
2019-03-12T10:34:31.536Z,5.22
2019-03-12T10:37:12.007Z,4.97
2019-03-12T10:39:59.442Z,5.40
2019-03-12T10:42:35.257Z,5.37
2019-03-12T10:45:11.978Z,5.77
2019-03-12T10:47:47.951Z,5.97
2019-03-12T10:50:23.842Z,6.25
2019-03-12T10:52:57.751Z,6.80
2019-03-12T10:55:33.233Z,6.33
2019-03-12T10:58:09.614Z,7.37
2019-03-12T11:00:45.039Z,8.00
2019-03-12T11:03:19.096Z,8.50
2019-03-12T11:05:54.267Z,7.90
2019-03-12T11:08:28.268Z,9.07
2019-03-12T11:11:02.856Z,8.03
2019-03-12T11:13:36.455Z,8.90
2019-03-12T11:16:11.823Z,8.27
2019-03-12T11:18:48.038Z,7.90
2019-03-12T11:21:22.978Z,7.62
2019-03-12T11:23:58.949Z,8.45
2019-03-12T11:26:34.463Z,8.47
2019-03-12T11:29:11.175Z,8.63
2019-03-12T11:31:49.387Z,8.80
2019-03-12T11:34:26.189Z,9.60
2019-03-12T11:37:06.517Z,8.07
2019-03-12T11:39:41.169Z,8.97
2019-03-12T11:42:17.227Z,8.80
2019-03-12T11:44:55.373Z,9.43
2019-03-12T11:47:31.442Z,8.70
2019-03-12T11:50:09.190Z,9.05
2019-03-12T11:52:52.646Z,8.97
2019-03-12T11:55:20.770Z,9.00
2019-03-12T11:57:56.552Z,8.37
2019-03-12T12:00:32.842Z,9.60
2019-03-12T12:03:09.365Z,9.10
2019-03-12T12:05:43.564Z,8.77
2019-03-12T12:08:19.855Z,9.63
2019-03-12T12:11:00.625Z,8.63
2019-03-12T12:13:48.503Z,8.03
2019-03-12T12:16:24.900Z,8.00
2019-03-12T12:19:15.518Z,8.40
2019-03-12T12:21:52.965Z,8.68
2019-03-12T12:24:30.026Z,8.77
2019-03-12T12:27:09.194Z,8.33
2019-03-12T12:29:47.956Z,7.75
2019-03-12T12:32:24.344Z,7.83
2019-03-12T12:35:04.335Z,8.50
2019-03-12T12:37:42.401Z,8.48
2019-03-12T12:40:27.167Z,9.13
2019-03-12T12:43:08.545Z,9.50
2019-03-12T12:45:46.905Z,7.83
2019-03-12T12:48:23.776Z,8.13
2019-03-12T12:51:04.141Z,8.13
2019-03-12T12:53:37.261Z,7.30
2019-03-12T12:56:13.371Z,8.60
2019-03-12T12:58:53.362Z,8.17
2019-03-12T13:01:35.238Z,7.90
2019-03-12T13:04:12.739Z,8.30
2019-03-12T13:06:47.961Z,8.00
2019-03-12T13:09:24.531Z,8.17
2019-03-12T13:12:01.655Z,8.30
2019-03-12T13:14:41.646Z,8.13
2019-03-12T13:17:15.741Z,8.73
2019-03-12T13:19:51.158Z,8.40
2019-03-12T13:22:29.612Z,8.13
2019-03-12T13:25:11.537Z,8.33
2019-03-12T13:27:48.920Z,7.67
2019-03-12T13:30:25.853Z,7.83
2019-03-12T13:33:01.754Z,8.17
2019-03-12T13:35:39.336Z,8.53
2019-03-12T13:38:19.125Z,9.30
2019-03-12T13:41:02.886Z,9.43
2019-03-12T13:43:37.671Z,8.07
2019-03-12T13:46:15.097Z,8.40
2019-03-12T13:48:50.297Z,8.60
2019-03-12T13:51:27.328Z,8.50
2019-03-12T13:54:02.278Z,7.30
2019-03-12T13:56:37.247Z,7.27
2019-03-12T13:59:12.816Z,6.50
2019-03-12T14:01:47.563Z,6.27
2019-03-12T14:04:23.224Z,7.60
2019-03-12T14:06:59.246Z,6.23
2019-03-12T14:09:39.222Z,7.10
2019-03-12T14:12:20.057Z,6.72
2019-03-12T14:14:55.509Z,7.55
2019-03-12T14:17:30.126Z,6.87
2019-03-12T14:20:20.843Z,6.92
2019-03-12T14:22:55.535Z,7.80
2019-03-12T14:25:31.693Z,7.90
2019-03-12T14:28:08.881Z,7.40
2019-03-12T14:30:43.690Z,8.07
2019-03-12T14:33:18.192Z,8.07
2019-03-12T14:35:52.599Z,8.17
2019-03-12T14:38:27.268Z,8.37
2019-03-12T14:41:03.336Z,8.10
2019-03-12T14:43:39.216Z,8.73
2019-03-12T14:46:14.060Z,10.10
2019-03-12T14:48:50.832Z,9.40
2019-03-12T14:51:36.809Z,9.50
2019-03-12T14:54:21.486Z,9.80
2019-03-12T14:56:55.942Z,10.20
2019-03-12T14:59:30.497Z,9.83
2019-03-12T15:02:04.895Z,10.03
2019-03-12T15:04:42.747Z,9.87
2019-03-12T15:07:17.576Z,9.53
2019-03-12T15:09:54.620Z,9.00
2019-03-12T15:12:29.121Z,8.70
2019-03-12T15:15:03.712Z,9.73
2019-03-12T15:17:38.237Z,8.80
2019-03-12T15:20:15.286Z,9.60
2019-03-12T15:22:51.371Z,9.88
2019-03-12T15:25:25.823Z,9.40
2019-03-12T15:28:00.219Z,9.77
2019-03-12T15:30:34.934Z,10.13
2019-03-12T15:33:11.339Z,10.13
2019-03-12T15:35:45.693Z,10.20
2019-03-12T15:38:20.100Z,10.73
2019-03-12T15:40:56.378Z,10.47
2019-03-12T15:43:30.974Z,10.13
2019-03-12T15:46:05.258Z,10.77
2019-03-12T15:48:39.757Z,10.33
2019-03-12T15:51:14.062Z,9.97
2019-03-12T15:53:48.261Z,9.57
2019-03-12T15:56:24.561Z,9.10
2019-03-12T15:58:56.325Z,9.33
2019-03-12T16:01:30.890Z,8.90
2019-03-12T16:04:05.212Z,9.80
2019-03-12T16:06:39.881Z,9.03
2019-03-12T16:09:18.487Z,9.80
2019-03-12T16:11:52.450Z,8.63
2019-03-12T16:14:27.822Z,8.80
2019-03-12T16:17:03.529Z,9.03
2019-03-12T16:19:39.685Z,9.50
2019-03-12T16:22:14.059Z,8.30
2019-03-12T16:24:48.701Z,8.17
2019-03-12T16:27:22.836Z,8.47
2019-03-12T16:29:58.617Z,9.60
2019-03-12T16:32:35.368Z,8.33
2019-03-12T16:35:10.144Z,7.73
2019-03-12T16:37:49.522Z,7.50
2019-03-12T16:40:25.812Z,7.30
2019-03-12T16:42:59.945Z,7.40
2019-03-12T16:45:34.135Z,8.13
2019-03-12T16:48:08.084Z,7.93
2019-03-12T16:50:42.753Z,7.60
2019-03-12T16:53:18.826Z,6.97
2019-03-12T16:55:52.672Z,8.33
2019-03-12T16:58:26.526Z,8.20
2019-03-12T17:01:00.628Z,7.33
2019-03-12T17:03:36.269Z,8.70
2019-03-12T17:06:10.407Z,8.53
2019-03-12T17:08:45.878Z,8.03
2019-03-12T17:11:19.583Z,8.10
2019-03-12T17:13:53.456Z,7.93
2019-03-12T17:16:26.937Z,8.33
2019-03-12T17:19:00.588Z,8.23
2019-03-12T17:21:34.746Z,8.28
2019-03-12T17:24:08.550Z,8.60
2019-03-12T17:26:42.392Z,9.37
2019-03-12T17:29:16.443Z,7.83
2019-03-12T17:31:50.367Z,7.20
2019-03-12T17:34:35.341Z,7.57
2019-03-12T17:36:59.785Z,7.20
2019-03-12T17:39:33.643Z,6.80
2019-03-12T17:42:09.617Z,8.00
2019-03-12T17:44:43.885Z,8.20
2019-03-12T17:47:20.401Z,6.35
2019-03-12T17:49:54.447Z,7.67
2019-03-12T17:52:29.989Z,6.60
2019-03-12T17:55:04.527Z,6.47
2019-03-12T17:57:38.649Z,6.30
2019-03-12T18:00:28.367Z,6.77
2019-03-12T18:02:58.851Z,8.13
2019-03-12T18:05:33.308Z,7.63
2019-03-12T18:08:07.980Z,6.93
2019-03-12T18:10:42.437Z,8.10
2019-03-12T18:13:16.986Z,8.73
2019-03-12T18:15:51.114Z,7.70
2019-03-12T18:18:26.022Z,6.90
2019-03-12T18:21:01.288Z,6.47
2019-03-12T18:23:35.170Z,6.70
2019-03-12T18:26:11.879Z,7.70
2019-03-12T18:28:46.121Z,7.30
2019-03-12T18:31:20.336Z,7.03
2019-03-12T18:33:54.395Z,6.23
2019-03-12T18:36:29.425Z,6.60
2019-03-12T18:39:03.565Z,5.83
2019-03-12T18:41:39.358Z,6.43
2019-03-12T18:44:14.013Z,5.23
2019-03-12T18:46:49.055Z,6.10
2019-03-12T18:49:23.087Z,5.12
2019-03-12T18:51:56.507Z,5.30
2019-03-12T18:54:29.819Z,5.50
2019-03-12T18:57:03.736Z,5.37
2019-03-12T18:59:37.200Z,5.63
2019-03-12T19:02:10.664Z,5.50
2019-03-12T19:04:43.917Z,5.90
2019-03-12T19:07:18.590Z,5.14
2019-03-12T19:09:52.143Z,5.80
2019-03-12T19:12:25.429Z,5.73
2019-03-12T19:14:59.121Z,5.60
2019-03-12T19:17:32.937Z,5.40
2019-03-12T19:20:08.875Z,5.40
2019-03-12T19:22:42.739Z,5.63
2019-03-12T19:25:38.014Z,5.12
2019-03-12T19:28:09.936Z,4.97
2019-03-12T19:30:43.747Z,4.93
2019-03-12T19:33:18.409Z,5.17
2019-03-12T19:35:52.579Z,4.53
2019-03-12T19:38:28.458Z,4.53
2019-03-12T19:41:02.389Z,5.10
2019-03-12T19:43:35.823Z,3.98
2019-03-12T19:46:09.326Z,4.27
2019-03-12T19:48:42.742Z,3.97
2019-03-12T19:51:16.120Z,3.97
2019-03-12T19:53:49.785Z,3.90
2019-03-12T19:56:24.885Z,3.90
2019-03-12T19:58:59.022Z,4.00
2019-03-12T20:01:34.126Z,3.87
2019-03-12T20:04:09.287Z,4.00
2019-03-12T20:06:42.913Z,3.73
2019-03-12T20:09:20.347Z,3.62
2019-03-12T20:12:05.277Z,3.77
2019-03-12T20:14:59.561Z,3.03
2019-03-12T20:17:59.656Z,3.63
2019-03-12T20:21:01.768Z,3.10
2019-03-12T20:24:13.426Z,3.60
2019-03-12T20:27:27.040Z,3.70
2019-03-12T20:30:33.097Z,3.40
2019-03-12T20:33:44.932Z,2.97
2019-03-12T20:36:47.619Z,3.53
2019-03-12T20:40:11.895Z,3.25
2019-03-12T20:43:08.982Z,3.30
2019-03-12T20:46:13.578Z,3.47
2019-03-12T20:49:14.997Z,3.23
2019-03-12T20:52:38.024Z,3.53
2019-03-12T20:55:53.972Z,3.00
2019-03-12T20:59:11.385Z,3.27
2019-03-12T21:05:06.761Z,3.67
2019-03-12T21:08:14.060Z,3.40
2019-03-12T21:10:52.743Z,3.00
2019-03-12T21:13:59.833Z,3.20
2019-03-12T21:17:22.222Z,3.23
2019-03-12T21:20:38.430Z,3.33
2019-03-12T21:23:14.652Z,3.83
2019-03-12T21:26:08.291Z,3.72
2019-03-12T21:29:10.979Z,3.50
2019-03-12T21:31:44.426Z,3.93
2019-03-12T21:34:18.006Z,4.17
2019-03-12T21:36:52.352Z,3.87
2019-03-12T21:39:25.665Z,4.13
2019-03-12T21:41:58.952Z,4.23
2019-03-12T21:44:32.705Z,4.40
2019-03-12T21:47:08.093Z,4.30
2019-03-12T21:49:41.524Z,4.53
2019-03-12T21:52:16.174Z,4.53
2019-03-12T21:54:51.892Z,4.47
2019-03-12T21:57:25.577Z,4.63
2019-03-12T21:59:59.419Z,4.70
2019-03-12T22:02:33.964Z,4.75
2019-03-12T22:05:08.606Z,4.67
2019-03-12T22:07:42.574Z,4.30
2019-03-12T22:10:20.118Z,3.80
2019-03-12T22:12:54.160Z,4.60
2019-03-12T22:15:29.792Z,4.70
2019-03-12T22:18:03.764Z,4.17
2019-03-12T22:20:38.318Z,5.40
2019-03-12T22:23:17.241Z,4.77
2019-03-12T22:25:50.968Z,4.50
2019-03-12T22:28:24.385Z,4.70
2019-03-12T22:30:58.040Z,4.47
2019-03-12T22:33:32.839Z,5.20
2019-03-12T22:36:07.161Z,4.50
2019-03-12T22:38:40.848Z,4.83
2019-03-12T22:41:14.366Z,5.13
2019-03-12T22:43:47.873Z,4.80
2019-03-12T22:46:21.324Z,4.70
2019-03-12T22:48:54.754Z,5.37
2019-03-12T22:51:28.064Z,6.20
2019-03-12T22:54:01.448Z,5.73
2019-03-12T22:56:34.752Z,6.43
2019-03-12T22:59:08.011Z,5.83
2019-03-12T23:01:41.517Z,6.47
2019-03-12T23:04:14.847Z,5.78
2019-03-12T23:06:48.206Z,6.13
2019-03-12T23:09:21.542Z,5.90
2019-03-12T23:11:55.360Z,6.53
2019-03-12T23:14:28.812Z,5.47
2019-03-12T23:17:05.226Z,6.03
2019-03-12T23:19:38.801Z,5.40
2019-03-12T23:22:12.280Z,6.30
2019-03-12T23:24:45.816Z,5.80
2019-03-12T23:27:19.213Z,5.47
2019-03-12T23:29:53.521Z,5.67
2019-03-12T23:32:28.696Z,6.20
2019-03-12T23:35:02.161Z,7.67
2019-03-12T23:37:35.487Z,6.80
2019-03-12T23:40:18.898Z,7.37
2019-03-12T23:42:52.626Z,8.50
2019-03-12T23:45:26.187Z,9.13
2019-03-12T23:47:59.557Z,8.60
2019-03-12T23:50:33.281Z,8.37
2019-03-12T23:53:06.861Z,8.67
2019-03-12T23:55:40.255Z,9.00
2019-03-12T23:58:13.597Z,8.67
